Time;durP1;ratioP1;P1;durP2;ratioP2;P2;SDS_P1;SDS_P2;PMS_P1;PMS_P2;Temp;Humidity;BMP_temperature;BMP_pressure;BME280_temperature;BME280_humidity;BME280_pressure;Samples;Min_cycle;Max_cycle;Signal;HPM_P1;HPM_P2
2023/01/23 00:01:13;;;;;;;17.92;16.02;;;2.60;99.90;;;;;;5031671;28;20418;-75
2023/01/23 00:03:40;;;;;;;17.20;15.40;;;2.60;99.90;;;;;;5031452;28;20415;-73
2023/01/23 00:06:10;;;;;;;18.83;16.13;;;2.60;99.90;;;;;;5030779;28;20422;-73
2023/01/23 00:08:37;;;;;;;18.50;16.60;;;2.60;99.90;;;;;;5031172;28;20430;-74
2023/01/23 00:11:06;;;;;;;18.15;16.20;;;2.50;99.90;;;;;;5028312;28;20477;-75
2023/01/23 00:13:32;;;;;;;17.60;15.80;;;2.50;99.90;;;;;;5030309;28;20434;-76
2023/01/23 00:16:04;;;;;;;18.10;16.15;;;2.50;99.90;;;;;;5032721;28;20446;-75
2023/01/23 00:18:30;;;;;;;18.45;16.58;;;2.50;99.90;;;;;;5038649;28;20769;-74
2023/01/23 00:20:57;;;;;;;17.60;15.80;;;2.50;99.90;;;;;;5032792;28;20419;-74
2023/01/23 00:23:24;;;;;;;19.40;17.23;;;2.50;99.90;;;;;;5029559;28;20614;-73
2023/01/23 00:25:51;;;;;;;18.60;16.40;;;2.50;99.90;;;;;;5031518;28;20445;-74
2023/01/23 00:28:18;;;;;;;18.67;16.67;;;2.50;99.90;;;;;;5027386;28;20933;-76
2023/01/23 00:30:44;;;;;;;18.10;16.17;;;2.50;99.90;;;;;;5027786;28;20430;-75
2023/01/23 00:33:12;;;;;;;17.88;15.98;;;2.50;99.90;;;;;;5027455;28;20430;-74
2023/01/23 00:35:39;;;;;;;18.25;16.27;;;2.50;99.90;;;;;;5027956;28;20419;-74
2023/01/23 00:38:06;;;;;;;18.27;16.30;;;2.50;99.90;;;;;;5027615;28;20888;-76
2023/01/23 00:40:33;;;;;;;18.58;16.58;;;2.50;99.90;;;;;;5026509;28;20429;-75
2023/01/23 00:43:00;;;;;;;18.40;16.40;;;2.40;99.90;;;;;;5025383;28;20423;-75
2023/01/23 00:45:27;;;;;;;18.23;16.33;;;2.40;99.90;;;;;;5027435;28;20850;-72
2023/01/23 00:47:54;;;;;;;17.23;15.35;;;2.50;99.90;;;;;;5031195;28;20426;-75
2023/01/23 00:50:22;;;;;;;19.25;16.90;;;2.40;99.90;;;;;;5044698;28;20418;-77
2023/01/23 00:52:48;;;;;;;17.95;16.05;;;2.50;99.90;;;;;;5043527;28;20411;-75
2023/01/23 00:55:15;;;;;;;18.77;16.27;;;2.50;99.90;;;;;;5029615;28;20442;-75
2023/01/23 00:57:42;;;;;;;18.73;16.73;;;2.40;99.90;;;;;;5027725;28;20427;-74
2023/01/23 01:00:10;;;;;;;18.42;15.93;;;2.40;99.90;;;;;;5030444;28;20427;-77
2023/01/23 01:02:36;;;;;;;17.25;15.45;;;2.40;99.90;;;;;;5030563;28;20441;-74
2023/01/23 01:05:03;;;;;;;18.15;16.25;;;2.40;99.90;;;;;;5030870;28;20423;-73
2023/01/23 01:07:31;;;;;;;18.20;16.30;;;2.40;99.90;;;;;;5030135;28;20537;-76
2023/01/23 01:09:58;;;;;;;17.95;16.05;;;2.40;99.90;;;;;;5030017;28;20442;-75
2023/01/23 01:12:25;;;;;;;17.35;15.55;;;2.40;99.90;;;;;;5030242;28;20422;-76
2023/01/23 01:14:52;;;;;;;17.00;14.70;;;2.40;99.90;;;;;;5030793;28;20429;-75
2023/01/23 01:17:18;;;;;;;16.93;15.13;;;2.40;99.90;;;;;;5035098;28;20414;-73
2023/01/23 01:19:45;;;;;;;18.98;16.50;;;2.40;99.90;;;;;;5037164;28;20786;-75
2023/01/23 01:22:12;;;;;;;17.88;16.05;;;2.50;99.90;;;;;;5035443;28;20506;-76
2023/01/23 01:24:41;;;;;;;17.63;15.57;;;2.40;99.90;;;;;;5029600;28;20570;-75
2023/01/23 01:27:08;;;;;;;17.27;14.82;;;2.50;99.90;;;;;;5030593;28;20772;-75
2023/01/23 01:29:34;;;;;;;18.67;16.77;;;2.50;99.90;;;;;;5031207;28;20798;-75
2023/01/23 01:32:01;;;;;;;17.35;15.48;;;2.50;99.90;;;;;;5047449;28;20442;-74
2023/01/23 01:34:28;;;;;;;16.50;14.80;;;2.50;99.90;;;;;;5038614;28;20487;-75
2023/01/23 01:36:54;;;;;;;16.20;14.50;;;2.50;99.90;;;;;;5030827;28;20465;-75
2023/01/23 01:39:21;;;;;;;16.77;14.95;;;2.50;99.90;;;;;;5029427;28;20450;-75
2023/01/23 01:41:49;;;;;;;17.10;15.30;;;2.50;99.90;;;;;;5030175;28;20441;-75
2023/01/23 01:44:18;;;;;;;17.52;15.25;;;2.60;99.90;;;;;;5031174;28;20423;-75
2023/01/23 01:46:45;;;;;;;16.70;14.98;;;2.60;99.90;;;;;;5031346;28;20427;-74
2023/01/23 01:49:15;;;;;;;17.50;15.60;;;2.60;99.90;;;;;;5031357;28;20403;-74
2023/01/23 01:51:46;;;;;;;17.00;15.20;;;2.60;99.90;;;;;;5030727;28;20415;-76
2023/01/23 01:54:20;;;;;;;18.00;16.10;;;2.60;99.90;;;;;;5028986;28;20474;-74
2023/01/23 01:56:52;;;;;;;18.08;16.25;;;2.60;99.90;;;;;;5030430;28;20422;-73
2023/01/23 01:59:21;;;;;;;18.17;16.27;;;2.60;99.90;;;;;;5030623;28;20418;-73
2023/01/23 02:01:52;;;;;;;18.27;16.48;;;2.60;99.90;;;;;;5045446;28;20418;-75
2023/01/23 02:04:19;;;;;;;16.38;14.52;;;2.60;99.90;;;;;;5046310;28;20427;-75
2023/01/23 02:06:46;;;;;;;17.73;16.00;;;2.60;99.90;;;;;;5047242;28;20411;-76
2023/01/23 02:09:19;;;;;;;17.92;16.02;;;2.50;99.90;;;;;;5037030;28;20428;-75
2023/01/23 02:11:46;;;;;;;18.20;16.30;;;2.50;99.90;;;;;;5029992;28;20420;-75
2023/01/23 02:14:14;;;;;;;17.00;15.20;;;2.50;99.90;;;;;;5028761;28;21006;-75
2023/01/23 02:16:45;;;;;;;17.52;15.63;;;2.50;99.90;;;;;;5030151;28;20500;-75
2023/01/23 02:19:19;;;;;;;18.17;15.90;;;2.50;99.90;;;;;;5029734;28;20423;-75
2023/01/23 02:21:49;;;;;;;17.10;15.40;;;2.50;99.90;;;;;;5028758;28;20440;-75
2023/01/23 02:24:23;;;;;;;17.88;16.08;;;2.50;99.90;;;;;;5024877;28;20458;-75
2023/01/23 02:26:51;;;;;;;17.40;15.50;;;2.50;99.90;;;;;;5026132;28;20422;-75
2023/01/23 02:29:19;;;;;;;17.58;15.70;;;2.50;99.90;;;;;;5029141;28;20434;-74
2023/01/23 02:31:48;;;;;;;16.90;15.10;;;2.50;99.90;;;;;;5029344;28;20484;-75
2023/01/23 02:34:15;;;;;;;17.10;15.40;;;2.50;99.90;;;;;;5036255;28;20440;-76
2023/01/23 02:36:46;;;;;;;17.65;15.75;;;2.50;99.90;;;;;;5029594;28;20418;-75
2023/01/23 02:39:14;;;;;;;16.83;15.13;;;2.50;99.90;;;;;;5021453;28;20427;-74
2023/01/23 02:41:43;;;;;;;17.33;15.53;;;2.50;99.90;;;;;;5039157;28;20430;-74
2023/01/23 02:44:16;;;;;;;17.33;15.52;;;2.50;99.90;;;;;;5045482;28;20414;-74
2023/01/23 02:46:43;;;;;;;18.13;16.23;;;2.40;99.90;;;;;;5039718;28;20419;-76
2023/01/23 02:49:10;;;;;;;17.50;15.60;;;2.40;99.90;;;;;;5038462;28;20436;-76
2023/01/23 02:51:37;;;;;;;16.55;14.85;;;2.40;99.90;;;;;;5027778;28;20518;-74
2023/01/23 02:54:04;;;;;;;17.92;16.08;;;2.50;99.90;;;;;;5027155;28;20431;-75
2023/01/23 02:56:32;;;;;;;16.40;14.55;;;2.50;99.90;;;;;;5031466;28;20937;-76
2023/01/23 03:01:45;;;;;;;16.77;15.00;;;2.50;99.90;;;;;;5030347;28;20924;-76
2023/01/23 03:04:12;;;;;;;17.60;15.80;;;2.50;99.90;;;;;;5029166;28;21240;-76
2023/01/23 03:06:38;;;;;;;17.20;15.50;;;2.40;99.90;;;;;;5030352;28;20423;-75
2023/01/23 03:09:08;;;;;;;16.33;14.60;;;2.40;99.90;;;;;;5030123;28;20431;-74
2023/01/23 03:11:37;;;;;;;17.40;15.60;;;2.40;99.90;;;;;;5033116;28;20784;-74
2023/01/23 03:14:05;;;;;;;16.92;15.13;;;2.30;99.90;;;;;;5030988;28;20430;-74
2023/01/23 03:16:33;;;;;;;17.33;15.23;;;2.30;99.90;;;;;;5026720;28;20527;-76
2023/01/23 03:19:04;;;;;;;17.13;15.32;;;2.30;99.90;;;;;;5029887;28;20438;-75
2023/01/23 03:21:31;;;;;;;17.27;15.48;;;2.30;99.90;;;;;;5044853;28;20438;-78
2023/01/23 03:23:58;;;;;;;18.63;15.35;;;2.30;99.90;;;;;;5043475;28;20454;-74
2023/01/23 03:26:25;;;;;;;16.90;15.20;;;2.30;99.90;;;;;;5044334;28;20423;-72
2023/01/23 03:31:36;;;;;;;17.17;15.38;;;2.40;99.90;;;;;;5029967;28;20466;-77
2023/01/23 03:34:05;;;;;;;17.10;14.88;;;2.30;99.90;;;;;;5029476;28;20426;-75
2023/01/23 03:36:31;;;;;;;16.85;15.10;;;2.30;99.90;;;;;;5028916;28;20509;-75
2023/01/23 03:41:44;;;;;;;17.75;15.85;;;2.20;99.90;;;;;;5028706;28;20892;-75
2023/01/23 03:44:11;;;;;;;17.48;15.57;;;2.10;99.90;;;;;;5027135;28;20948;-75
2023/01/23 03:46:38;;;;;;;19.10;16.80;;;2.00;99.90;;;;;;5027512;28;20921;-75
2023/01/23 03:49:06;;;;;;;19.77;17.77;;;1.90;99.90;;;;;;5028341;28;20426;-74
2023/01/23 03:51:33;;;;;;;17.88;15.98;;;1.80;99.90;;;;;;5028041;28;20457;-74
2023/01/23 03:54:00;;;;;;;18.85;16.85;;;1.80;99.90;;;;;;5026885;28;20435;-75
2023/01/23 03:56:26;;;;;;;18.45;16.50;;;1.80;99.90;;;;;;5027649;28;20414;-74
2023/01/23 03:58:53;;;;;;;17.95;16.05;;;1.80;99.90;;;;;;5028054;28;20488;-73
2023/01/23 04:01:20;;;;;;;19.23;17.00;;;1.70;99.90;;;;;;5029921;28;20415;-73
2023/01/23 04:03:47;;;;;;;19.90;17.60;;;1.70;99.90;;;;;;5035812;28;20426;-73
2023/01/23 04:06:15;;;;;;;18.55;16.65;;;1.70;99.90;;;;;;5031366;28;20418;-74
2023/01/23 04:08:41;;;;;;;20.27;18.08;;;1.80;99.90;;;;;;5035039;28;20431;-73
2023/01/23 04:11:10;;;;;;;18.83;16.83;;;1.80;99.90;;;;;;5037198;28;20426;-74
2023/01/23 04:13:37;;;;;;;19.23;16.83;;;1.80;99.90;;;;;;5037036;28;20448;-75
2023/01/23 04:16:05;;;;;;;18.98;16.98;;;1.90;99.90;;;;;;5044175;28;20413;-75
2023/01/23 04:18:33;;;;;;;18.80;16.80;;;2.00;99.90;;;;;;5039441;28;20916;-74
2023/01/23 04:21:00;;;;;;;18.55;16.48;;;2.00;99.90;;;;;;5029235;28;20435;-74
2023/01/23 04:23:28;;;;;;;19.23;17.23;;;2.00;99.90;;;;;;5030427;28;20423;-73
2023/01/23 04:25:55;;;;;;;17.95;16.15;;;2.00;99.90;;;;;;5031790;28;20419;-77
2023/01/23 04:28:21;;;;;;;19.13;16.50;;;2.00;99.90;;;;;;5026903;28;20912;-76
2023/01/23 04:30:49;;;;;;;18.73;16.60;;;2.00;99.90;;;;;;5027989;28;20423;-72
2023/01/23 04:33:16;;;;;;;18.23;16.33;;;1.90;99.90;;;;;;5026070;28;20445;-72
2023/01/23 04:35:50;;;;;;;18.40;16.50;;;1.80;99.90;;;;;;5026011;28;21158;-76
2023/01/23 04:38:16;;;;;;;18.20;16.20;;;1.70;99.90;;;;;;5027238;28;20418;-75
2023/01/23 04:40:46;;;;;;;18.47;16.13;;;1.60;99.90;;;;;;5028033;28;20419;-73
2023/01/23 04:43:13;;;;;;;19.52;17.40;;;1.60;99.90;;;;;;5020295;28;20434;-73
2023/01/23 04:45:40;;;;;;;18.65;16.65;;;1.70;99.90;;;;;;5027482;28;20422;-76
2023/01/23 04:48:07;;;;;;;18.13;16.17;;;1.70;99.90;;;;;;5031622;28;20888;-73
2023/01/23 04:50:34;;;;;;;18.25;16.27;;;1.70;99.90;;;;;;5025149;28;20438;-74
2023/01/23 04:53:00;;;;;;;16.95;15.15;;;1.80;99.90;;;;;;5026106;28;20793;-74
2023/01/23 04:55:27;;;;;;;19.95;17.85;;;1.80;99.90;;;;;;5028068;28;20423;-73
2023/01/23 04:57:55;;;;;;;18.10;16.20;;;1.80;99.90;;;;;;5026784;28;20446;-73
2023/01/23 05:00:23;;;;;;;17.30;15.50;;;1.90;99.90;;;;;;5033632;28;20526;-74
2023/01/23 05:02:50;;;;;;;17.75;15.55;;;1.90;99.90;;;;;;5035476;28;20514;-72
2023/01/23 05:05:19;;;;;;;17.13;15.32;;;1.90;99.90;;;;;;5034768;28;20457;-75
2023/01/23 05:07:47;;;;;;;17.90;16.00;;;1.90;99.90;;;;;;5035193;28;20446;-73
2023/01/23 05:10:14;;;;;;;18.65;16.75;;;1.80;99.90;;;;;;5031004;28;20415;-73
2023/01/23 05:12:41;;;;;;;20.58;17.73;;;1.70;99.90;;;;;;5027713;28;20435;-72
2023/01/23 05:15:11;;;;;;;19.45;17.35;;;1.60;99.90;;;;;;5030728;28;20418;-73
2023/01/23 05:17:38;;;;;;;20.95;18.15;;;1.50;99.90;;;;;;5043829;28;20427;-73
2023/01/23 05:20:06;;;;;;;18.27;15.65;;;1.40;99.90;;;;;;5033592;28;20431;-73
2023/01/23 05:22:33;;;;;;;17.38;15.57;;;1.30;99.90;;;;;;5027284;28;20418;-73
2023/01/23 05:24:59;;;;;;;17.83;15.73;;;1.20;99.90;;;;;;5030117;28;20438;-73
2023/01/23 05:27:26;;;;;;;19.23;16.95;;;1.10;99.90;;;;;;5027099;28;20450;-73
2023/01/23 05:29:53;;;;;;;17.42;15.55;;;1.00;99.90;;;;;;5026444;28;20510;-73
2023/01/23 05:32:21;;;;;;;18.38;15.85;;;0.90;99.90;;;;;;5026230;28;20542;-73
2023/01/23 05:34:48;;;;;;;18.53;16.53;;;0.80;99.90;;;;;;5027545;28;20446;-75
2023/01/23 05:37:15;;;;;;;17.33;15.52;;;0.80;99.90;;;;;;5040234;28;20435;-75
2023/01/23 05:39:41;;;;;;;20.92;17.10;;;0.70;99.90;;;;;;5045610;28;20411;-75
2023/01/23 05:42:08;;;;;;;17.80;15.60;;;0.70;99.90;;;;;;5043706;28;20498;-78
2023/01/23 05:44:35;;;;;;;18.88;16.88;;;0.70;99.90;;;;;;5028995;28;20437;-78
2023/01/23 05:47:02;;;;;;;18.85;16.85;;;0.70;99.90;;;;;;5034695;28;20419;-76
2023/01/23 05:49:30;;;;;;;17.80;15.90;;;0.80;99.90;;;;;;5032081;28;20461;-75
2023/01/23 05:51:56;;;;;;;16.85;15.10;;;0.90;99.90;;;;;;5031149;28;20442;-75
2023/01/23 05:54:23;;;;;;;17.67;15.77;;;1.00;99.90;;;;;;5027838;28;20422;-75
2023/01/23 05:56:50;;;;;;;17.83;15.93;;;1.00;99.90;;;;;;5029344;28;20624;-74
2023/01/23 05:59:16;;;;;;;17.75;15.95;;;1.10;99.90;;;;;;5027948;28;20826;-74
2023/01/23 06:01:43;;;;;;;17.42;15.63;;;1.10;99.90;;;;;;5031058;28;20450;-74
2023/01/23 06:04:11;;;;;;;17.38;15.48;;;1.00;99.90;;;;;;5042412;28;20411;-74
2023/01/23 06:06:48;;;;;;;17.98;16.08;;;0.90;99.90;;;;;;5042471;28;20528;-74
2023/01/23 06:09:15;;;;;;;17.45;15.65;;;0.90;99.90;;;;;;5046156;28;20427;-74
2023/01/23 06:11:50;;;;;;;16.60;14.90;;;0.80;99.90;;;;;;5046714;28;20433;-74
2023/01/23 06:14:17;;;;;;;16.80;15.00;;;0.80;99.90;;;;;;5045896;28;20425;-74
2023/01/23 06:16:43;;;;;;;17.60;15.07;;;0.70;99.90;;;;;;5047084;28;20637;-74
2023/01/23 06:19:10;;;;;;;17.20;15.40;;;0.70;99.90;;;;;;5036719;28;20419;-73
2023/01/23 06:21:37;;;;;;;17.52;15.63;;;0.60;99.90;;;;;;5030278;28;20554;-74
2023/01/23 06:24:06;;;;;;;17.23;15.35;;;0.50;99.90;;;;;;5028132;28;20806;-73
2023/01/23 06:26:32;;;;;;;17.25;15.45;;;0.50;99.90;;;;;;5031663;28;20442;-73
2023/01/23 06:28:59;;;;;;;17.73;15.82;;;0.50;99.90;;;;;;5030563;28;20850;-74
2023/01/23 06:31:26;;;;;;;17.40;15.50;;;0.40;99.90;;;;;;5028886;28;20435;-75
2023/01/23 06:33:54;;;;;;;18.55;16.60;;;0.40;99.90;;;;;;5030126;28;20629;-74
2023/01/23 06:36:21;;;;;;;18.52;16.10;;;0.50;99.90;;;;;;5028723;28;20435;-73
2023/01/23 06:38:47;;;;;;;18.60;16.40;;;0.60;99.90;;;;;;5031357;28;20449;-72
2023/01/23 06:41:15;;;;;;;16.38;14.57;;;0.70;99.90;;;;;;5030292;28;20423;-75
2023/01/23 06:43:43;;;;;;;18.10;16.13;;;0.90;99.90;;;;;;5028999;28;20510;-72
2023/01/23 06:46:10;;;;;;;16.48;14.38;;;1.00;99.90;;;;;;5028726;28;20434;-74
2023/01/23 06:48:38;;;;;;;17.00;15.20;;;1.10;99.90;;;;;;5029998;28;20422;-74
2023/01/23 06:51:06;;;;;;;17.48;15.68;;;1.30;99.90;;;;;;5027324;28;20514;-75
2023/01/23 06:53:33;;;;;;;17.20;15.40;;;1.40;99.90;;;;;;5028463;28;20442;-76
2023/01/23 06:56:00;;;;;;;17.50;15.70;;;1.50;99.90;;;;;;5029594;28;20488;-75
2023/01/23 06:58:28;;;;;;;15.75;14.15;;;1.60;99.90;;;;;;5029266;28;20458;-75
2023/01/23 07:00:55;;;;;;;15.82;14.23;;;1.60;99.90;;;;;;5026981;28;20478;-73
2023/01/23 07:03:23;;;;;;;14.82;13.30;;;1.70;99.90;;;;;;5029932;28;20445;-75
2023/01/23 07:05:50;;;;;;;14.73;13.23;;;1.70;99.90;;;;;;5025317;28;20533;-75
2023/01/23 07:08:17;;;;;;;16.05;13.70;;;1.70;99.90;;;;;;5019929;28;20944;-66
2023/01/23 07:10:43;;;;;;;15.40;13.80;;;1.70;99.90;;;;;;5026572;28;20442;-74
2023/01/23 07:13:11;;;;;;;15.32;13.80;;;1.70;99.90;;;;;;5033570;28;20445;-74
2023/01/23 07:15:39;;;;;;;15.98;14.38;;;1.80;99.90;;;;;;5027697;28;20465;-75
2023/01/23 07:18:06;;;;;;;14.93;13.33;;;1.80;99.90;;;;;;5026948;28;20442;-75
2023/01/23 07:20:33;;;;;;;14.95;13.43;;;1.80;99.90;;;;;;5029593;28;20533;-77
2023/01/23 07:22:59;;;;;;;15.07;13.57;;;1.80;99.90;;;;;;5029314;28;20438;-76
2023/01/23 07:25:27;;;;;;;14.95;13.45;;;1.80;99.90;;;;;;5030689;28;20415;-77
2023/01/23 07:28:01;;;;;;;15.70;14.10;;;1.80;99.90;;;;;;5039368;28;20419;-77
2023/01/23 07:30:28;;;;;;;14.23;12.82;;;1.90;99.90;;;;;;5034565;28;20442;-76
2023/01/23 07:32:57;;;;;;;14.70;13.20;;;1.90;99.90;;;;;;5038161;28;20450;-76
2023/01/23 07:35:23;;;;;;;15.27;13.55;;;1.90;99.90;;;;;;5030236;28;20940;-75
2023/01/23 07:37:50;;;;;;;14.90;13.20;;;1.90;99.90;;;;;;5027523;28;20435;-75
2023/01/23 07:40:18;;;;;;;13.93;12.52;;;1.90;99.90;;;;;;5031213;28;20415;-77
2023/01/23 07:42:45;;;;;;;14.60;13.10;;;1.90;99.90;;;;;;5026391;28;20445;-75
2023/01/23 07:45:12;;;;;;;14.02;12.52;;;2.00;99.90;;;;;;5023757;28;20575;-77
2023/01/23 07:47:39;;;;;;;13.90;12.50;;;2.00;99.90;;;;;;5025932;28;20422;-78
2023/01/23 07:50:11;;;;;;;13.95;12.55;;;2.00;99.90;;;;;;5030822;28;20438;-77
2023/01/23 07:52:38;;;;;;;14.43;12.90;;;2.00;99.90;;;;;;5024714;28;20506;-76
2023/01/23 07:55:06;;;;;;;13.15;11.82;;;2.10;99.90;;;;;;5031188;28;20435;-75
2023/01/23 07:57:33;;;;;;;13.73;12.33;;;2.10;99.90;;;;;;5031049;28;20435;-77
2023/01/23 08:00:00;;;;;;;14.60;13.20;;;2.10;99.90;;;;;;5030038;28;20939;-76
2023/01/23 08:02:27;;;;;;;15.00;13.50;;;2.20;99.90;;;;;;5029787;28;20878;-76
2023/01/23 08:04:54;;;;;;;13.57;12.18;;;2.20;99.90;;;;;;5036681;28;20442;-76
2023/01/23 08:07:22;;;;;;;13.88;12.57;;;2.30;99.90;;;;;;5036251;28;20438;-76
2023/01/23 08:09:49;;;;;;;13.68;12.27;;;2.30;99.90;;;;;;5038384;28;20433;-78
2023/01/23 08:12:16;;;;;;;14.45;13.07;;;2.30;99.90;;;;;;5039334;28;20407;-78
2023/01/23 08:14:42;;;;;;;13.00;11.70;;;2.40;99.90;;;;;;5045776;28;20527;-78
2023/01/23 08:17:16;;;;;;;16.05;14.45;;;2.40;99.90;;;;;;5044969;28;20445;-75
2023/01/23 08:19:43;;;;;;;13.90;12.50;;;2.50;99.90;;;;;;5036526;28;20426;-77
2023/01/23 08:22:09;;;;;;;13.63;12.23;;;2.50;99.90;;;;;;5034977;28;20423;-76
2023/01/23 08:24:38;;;;;;;13.65;12.35;;;2.60;99.90;;;;;;5039296;28;20430;-77
2023/01/23 08:27:04;;;;;;;13.50;12.20;;;2.60;99.90;;;;;;5033710;28;20431;-78
2023/01/23 08:29:31;;;;;;;13.20;11.90;;;2.70;99.90;;;;;;5039134;28;20443;-78
2023/01/23 08:31:58;;;;;;;14.18;12.77;;;2.70;99.90;;;;;;5036500;28;20427;-76
2023/01/23 08:34:25;;;;;;;13.75;12.45;;;2.80;99.90;;;;;;5040006;28;20423;-77
2023/01/23 08:36:52;;;;;;;14.50;13.10;;;2.80;99.90;;;;;;5037565;28;20441;-78
2023/01/23 08:39:20;;;;;;;14.95;13.45;;;2.90;99.90;;;;;;5030433;28;20431;-77
2023/01/23 08:41:48;;;;;;;13.65;12.35;;;2.90;99.90;;;;;;5030527;28;20439;-76
2023/01/23 08:44:14;;;;;;;15.95;14.25;;;3.00;99.90;;;;;;5029164;28;20877;-77
2023/01/23 08:46:41;;;;;;;16.95;15.20;;;3.10;99.90;;;;;;5028092;28;20439;-76
2023/01/23 08:49:08;;;;;;;14.48;13.07;;;3.10;99.90;;;;;;5028278;28;20970;-76
2023/01/23 08:51:35;;;;;;;13.85;12.45;;;3.10;99.90;;;;;;5027109;28;20430;-77
2023/01/23 08:54:02;;;;;;;14.40;13.00;;;3.10;99.90;;;;;;5026925;28;20912;-77
2023/01/23 08:56:29;;;;;;;13.45;12.20;;;3.20;99.90;;;;;;5027711;28;20426;-76
2023/01/23 08:58:57;;;;;;;14.30;12.90;;;3.20;99.90;;;;;;5030672;28;20522;-77
2023/01/23 09:01:26;;;;;;;14.30;12.90;;;3.20;99.90;;;;;;5036080;28;20411;-77
2023/01/23 09:03:53;;;;;;;13.93;12.53;;;3.20;99.90;;;;;;5037378;28;20462;-77
2023/01/23 09:06:22;;;;;;;14.15;12.68;;;3.20;99.90;;;;;;5033761;28;20427;-78
2023/01/23 09:08:49;;;;;;;14.63;13.07;;;3.30;99.90;;;;;;5034488;28;20430;-77
2023/01/23 09:11:18;;;;;;;14.70;13.20;;;3.30;99.90;;;;;;5034568;28;20437;-77
2023/01/23 09:13:46;;;;;;;14.55;13.15;;;3.30;99.90;;;;;;5032576;28;20445;-77
2023/01/23 09:16:14;;;;;;;15.20;13.70;;;3.30;99.90;;;;;;5028714;28;20434;-77
2023/01/23 09:18:41;;;;;;;14.93;13.43;;;3.40;99.90;;;;;;5036729;28;20487;-77
2023/01/23 09:21:10;;;;;;;14.95;13.25;;;3.40;99.90;;;;;;5032481;28;20447;-78
2023/01/23 09:23:37;;;;;;;14.85;13.35;;;3.40;99.90;;;;;;5028367;28;20522;-75
2023/01/23 09:26:05;;;;;;;15.65;13.95;;;3.40;99.90;;;;;;5034635;28;20525;-77
2023/01/23 09:28:32;;;;;;;15.73;14.05;;;3.40;99.90;;;;;;5029859;28;20443;-75
2023/01/23 09:31:03;;;;;;;14.10;12.70;;;3.40;99.90;;;;;;5031664;28;20430;-77
2023/01/23 09:33:31;;;;;;;16.65;13.50;;;3.40;99.90;;;;;;5033623;28;20431;-77
2023/01/23 09:35:58;;;;;;;15.95;14.35;;;3.40;99.90;;;;;;5034060;28;20767;-77
2023/01/23 09:38:25;;;;;;;15.40;13.80;;;3.40;99.90;;;;;;5031055;28;20447;-75
2023/01/23 09:40:54;;;;;;;14.57;13.07;;;3.50;99.90;;;;;;5033386;28;20502;-78
2023/01/23 09:43:24;;;;;;;14.30;12.90;;;3.50;99.90;;;;;;5030370;28;20823;-75
2023/01/23 09:46:01;;;;;;;14.25;12.73;;;3.50;99.90;;;;;;5032705;28;20434;-75
2023/01/23 09:48:33;;;;;;;15.52;13.93;;;3.50;99.90;;;;;;5026230;28;20492;-76
2023/01/23 09:51:05;;;;;;;15.90;14.40;;;3.50;99.90;;;;;;5029779;28;20458;-77
2023/01/23 09:53:37;;;;;;;16.42;14.82;;;3.50;99.90;;;;;;5028021;28;20438;-77
2023/01/23 09:56:14;;;;;;;16.55;14.95;;;3.60;99.90;;;;;;5027893;28;20461;-77
2023/01/23 09:58:46;;;;;;;15.15;13.75;;;3.60;99.90;;;;;;5028179;28;20509;-77
2023/01/23 10:01:13;;;;;;;16.38;14.77;;;3.60;99.90;;;;;;5027700;28;20418;-76
2023/01/23 10:03:41;;;;;;;16.52;14.73;;;3.60;99.90;;;;;;5028842;28;20499;-77
2023/01/23 10:06:19;;;;;;;16.40;14.80;;;3.70;99.90;;;;;;5027832;28;20466;-76
2023/01/23 10:08:59;;;;;;;15.70;14.10;;;3.70;99.80;;;;;;5026421;28;20653;-74
2023/01/23 10:11:33;;;;;;;15.77;14.17;;;3.70;99.90;;;;;;5029495;28;20541;-75
2023/01/23 10:14:19;;;;;;;15.60;14.00;;;3.70;99.90;;;;;;5022497;28;20440;-77
2023/01/23 10:17:13;;;;;;;15.63;14.13;;;3.70;99.70;;;;;;5028012;28;20430;-76
2023/01/23 10:20:12;;;;;;;14.63;13.23;;;3.70;99.60;;;;;;5015598;28;20435;-75
2023/01/23 10:22:46;;;;;;;14.50;13.00;;;3.70;99.40;;;;;;5031743;28;20430;-77
2023/01/23 10:25:17;;;;;;;13.80;12.50;;;3.70;99.50;;;;;;5028572;28;20545;-76
2023/01/23 10:27:46;;;;;;;14.45;12.98;;;3.80;99.50;;;;;;5027320;28;20431;-76
2023/01/23 10:30:26;;;;;;;15.95;14.45;;;3.90;99.00;;;;;;5030173;28;20431;-77
2023/01/23 10:32:57;;;;;;;13.98;12.57;;;4.00;98.90;;;;;;5036287;28;20446;-76
2023/01/23 10:35:32;;;;;;;13.93;12.52;;;4.00;98.50;;;;;;5025404;28;20813;-77
2023/01/23 10:38:04;;;;;;;14.02;12.73;;;4.10;98.60;;;;;;5036394;28;20433;-75
2023/01/23 10:43:17;;;;;;;14.75;12.73;;;4.30;97.90;;;;;;5028077;28;20394;-77
2023/01/23 10:45:45;;;;;;;14.05;12.60;;;4.40;97.90;;;;;;5028181;28;20481;-74
2023/01/23 10:48:39;;;;;;;13.20;12.00;;;4.40;97.40;;;;;;5027339;28;20431;-75
2023/01/23 10:51:25;;;;;;;14.70;13.20;;;4.50;97.00;;;;;;5029969;28;20442;-75
2023/01/23 10:54:06;;;;;;;14.10;12.60;;;4.60;96.50;;;;;;5024527;28;20605;-75
2023/01/23 10:56:33;;;;;;;15.07;13.57;;;4.60;96.40;;;;;;5022560;28;20542;-75
2023/01/23 10:59:02;;;;;;;13.77;12.48;;;4.70;96.50;;;;;;5019106;28;20440;-76
2023/01/23 11:01:31;;;;;;;14.73;13.32;;;4.70;95.90;;;;;;5027476;28;20435;-75
2023/01/23 11:04:10;;;;;;;15.07;13.68;;;4.70;96.10;;;;;;5026388;28;20912;-76
2023/01/23 11:06:38;;;;;;;14.60;13.10;;;4.70;96.10;;;;;;5024034;28;20463;-76
2023/01/23 11:09:19;;;;;;;15.10;13.70;;;4.80;96.20;;;;;;5027841;28;20454;-76
2023/01/23 11:12:03;;;;;;;14.00;12.60;;;4.90;95.90;;;;;;5026770;28;20430;-77
2023/01/23 11:14:30;;;;;;;14.43;13.02;;;5.00;95.40;;;;;;5021819;28;20928;-76
2023/01/23 11:17:13;;;;;;;13.73;12.32;;;5.20;94.90;;;;;;5025345;28;20439;-76
2023/01/23 11:19:42;;;;;;;14.30;12.90;;;5.30;95.10;;;;;;5022074;28;20423;-77
2023/01/23 11:22:26;;;;;;;14.00;12.60;;;5.50;94.20;;;;;;5024601;28;20427;-75
2023/01/23 11:24:53;;;;;;;13.10;11.80;;;5.60;93.30;;;;;;5027365;28;21037;-74
2023/01/23 11:27:25;;;;;;;13.88;12.57;;;5.60;93.10;;;;;;5028821;28;20429;-76
2023/01/23 11:30:28;;;;;;;14.43;13.13;;;5.60;93.20;;;;;;5027613;28;20435;-75
2023/01/23 11:32:59;;;;;;;13.50;12.20;;;5.60;93.20;;;;;;5024598;28;20435;-75
2023/01/23 11:35:37;;;;;;;12.30;11.20;;;5.60;92.80;;;;;;5026904;28;20439;-76
2023/01/23 11:38:06;;;;;;;12.70;11.50;;;5.50;93.10;;;;;;5026898;28;20479;-74
2023/01/23 11:40:33;;;;;;;14.13;12.70;;;5.50;93.00;;;;;;5027182;28;20423;-75
2023/01/23 11:43:00;;;;;;;15.00;13.60;;;5.50;92.90;;;;;;5025159;28;20469;-75
2023/01/23 11:45:38;;;;;;;13.40;12.10;;;5.50;92.90;;;;;;5025242;28;20434;-75
2023/01/23 11:48:24;;;;;;;12.88;11.50;;;5.40;92.90;;;;;;5027287;28;20473;-77
2023/01/23 11:50:53;;;;;;;12.65;11.43;;;5.40;93.00;;;;;;5026081;28;20512;-75
2023/01/23 11:53:28;;;;;;;12.75;11.55;;;5.40;92.90;;;;;;5027901;28;20454;-74
2023/01/23 11:56:20;;;;;;;13.33;12.03;;;5.40;92.80;;;;;;5025058;28;21033;-74
2023/01/23 11:59:20;;;;;;;11.40;10.30;;;5.30;92.60;;;;;;5026561;28;20430;-74
2023/01/23 12:02:05;;;;;;;10.45;9.45;;;5.30;92.00;;;;;;5018463;28;20423;-75
2023/01/23 12:04:41;;;;;;;10.50;9.50;;;5.40;91.50;;;;;;5025173;28;20437;-74
2023/01/23 12:07:19;;;;;;;10.70;9.60;;;5.40;91.20;;;;;;5026465;28;20862;-75
2023/01/23 12:09:58;;;;;;;10.70;8.57;;;5.40;90.80;;;;;;5025969;28;20590;-75
2023/01/23 12:12:49;;;;;;;8.93;8.02;;;5.40;90.10;;;;;;5023159;28;20430;-75
2023/01/23 12:15:24;;;;;;;8.88;7.97;;;5.40;89.50;;;;;;5020660;28;20471;-75
2023/01/23 12:17:59;;;;;;;10.83;7.90;;;5.50;88.40;;;;;;5028325;28;20418;-75
2023/01/23 12:20:44;;;;;;;9.10;8.20;;;5.40;88.20;;;;;;5029737;28;20407;-73
2023/01/23 12:23:31;;;;;;;9.10;8.20;;;5.40;87.30;;;;;;5027564;28;20476;-75
2023/01/23 12:26:11;;;;;;;10.40;8.13;;;5.40;87.10;;;;;;5035602;28;21003;-75
2023/01/23 12:29:29;;;;;;;9.18;7.30;;;5.30;87.90;;;;;;5031552;28;20443;-74
2023/01/23 12:32:18;;;;;;;7.15;6.55;;;5.30;87.50;;;;;;4965882;28;20521;-74
2023/01/23 12:35:10;;;;;;;5.38;4.95;;;5.10;85.70;;;;;;5028161;28;20966;-75
2023/01/23 12:37:54;;;;;;;5.10;4.70;;;5.00;84.20;;;;;;5019091;28;20426;-74
2023/01/23 12:40:26;;;;;;;5.78;5.10;;;4.90;84.00;;;;;;5016544;28;20435;-75
2023/01/23 12:43:01;;;;;;;6.03;5.53;;;4.90;84.00;;;;;;5021746;28;20928;-75
2023/01/23 12:45:30;;;;;;;6.47;5.88;;;4.80;85.40;;;;;;5025842;28;20433;-74
2023/01/23 12:48:04;;;;;;;7.57;5.80;;;4.90;86.10;;;;;;5024310;28;21178;-75
2023/01/23 12:50:40;;;;;;;8.48;7.78;;;5.00;86.90;;;;;;5026299;28;20449;-74
2023/01/23 12:53:11;;;;;;;7.23;6.53;;;5.10;87.20;;;;;;5022294;28;20526;-75
2023/01/23 12:55:43;;;;;;;7.80;7.10;;;5.10;85.40;;;;;;5026666;28;20444;-75
2023/01/23 12:58:15;;;;;;;8.15;6.00;;;5.10;85.90;;;;;;5029610;28;20433;-74
2023/01/23 13:00:54;;;;;;;7.30;6.13;;;5.10;85.20;;;;;;5028364;28;20423;-75
2023/01/23 13:03:42;;;;;;;7.88;7.07;;;5.10;85.20;;;;;;5025755;28;20909;-75